sensor_id;sensor_type;location;lat;lon;timestamp;pressure;altitude;pressure_sealevel;temperature;humidity
60871;BME280;46714;50.118;14.462;2022-08-18T00:00:37;98394.22;;;21.69;62.16
60871;BME280;46714;50.118;14.462;2022-08-18T00:03:04;98388.38;;;21.70;61.69
60871;BME280;46714;50.118;14.462;2022-08-18T00:05:31;98382.53;;;21.72;61.53
60871;BME280;46714;50.118;14.462;2022-08-18T00:07:58;98379.78;;;21.72;61.19
60871;BME280;46714;50.118;14.462;2022-08-18T00:10:24;98380.59;;;21.72;61.57
60871;BME280;46714;50.118;14.462;2022-08-18T00:12:50;98383.88;;;21.74;61.72
60871;BME280;46714;50.118;14.462;2022-08-18T00:15:16;98385.50;;;21.75;61.57
60871;BME280;46714;50.118;14.462;2022-08-18T00:17:42;98385.22;;;21.77;61.57
60871;BME280;46714;50.118;14.462;2022-08-18T00:20:09;98386.31;;;21.76;61.91
60871;BME280;46714;50.118;14.462;2022-08-18T00:22:38;98389.41;;;21.74;61.75
60871;BME280;46714;50.118;14.462;2022-08-18T00:25:04;98381.09;;;21.74;61.63
60871;BME280;46714;50.118;14.462;2022-08-18T00:27:31;98385.84;;;21.74;61.26
60871;BME280;46714;50.118;14.462;2022-08-18T00:30:00;98387.75;;;21.73;61.61
60871;BME280;46714;50.118;14.462;2022-08-18T00:32:29;98387.56;;;21.70;61.30
60871;BME280;46714;50.118;14.462;2022-08-18T00:35:03;98387.34;;;21.66;62.18
60871;BME280;46714;50.118;14.462;2022-08-18T00:37:38;98393.81;;;21.62;61.98
60871;BME280;46714;50.118;14.462;2022-08-18T00:40:04;98388.38;;;21.57;61.80
60871;BME280;46714;50.118;14.462;2022-08-18T00:42:31;98395.13;;;21.50;62.39
60871;BME280;46714;50.118;14.462;2022-08-18T00:44:58;98401.59;;;21.46;62.82
60871;BME280;46714;50.118;14.462;2022-08-18T00:47:25;98388.66;;;21.41;63.41
60871;BME280;46714;50.118;14.462;2022-08-18T00:49:55;98394.56;;;21.34;63.28
60871;BME280;46714;50.118;14.462;2022-08-18T00:52:21;98390.25;;;21.28;63.99
60871;BME280;46714;50.118;14.462;2022-08-18T00:54:48;98394.22;;;21.22;64.10
60871;BME280;46714;50.118;14.462;2022-08-18T00:57:16;98392.66;;;21.16;64.11
60871;BME280;46714;50.118;14.462;2022-08-18T01:02:25;98393.75;;;21.01;64.81
60871;BME280;46714;50.118;14.462;2022-08-18T01:05:00;98391.38;;;20.95;65.69
60871;BME280;46714;50.118;14.462;2022-08-18T01:07:39;98390.34;;;20.90;66.15
60871;BME280;46714;50.118;14.462;2022-08-18T01:10:17;98395.44;;;20.83;66.41
60871;BME280;46714;50.118;14.462;2022-08-18T01:12:45;98398.28;;;20.78;67.07
60871;BME280;46714;50.118;14.462;2022-08-18T01:15:13;98385.88;;;20.76;66.99
60871;BME280;46714;50.118;14.462;2022-08-18T01:17:40;98391.72;;;20.74;67.15
60871;BME280;46714;50.118;14.462;2022-08-18T01:20:26;98388.94;;;20.74;67.13
60871;BME280;46714;50.118;14.462;2022-08-18T01:23:18;98391.72;;;20.74;67.01
60871;BME280;46714;50.118;14.462;2022-08-18T01:25:45;98391.72;;;20.74;67.24
60871;BME280;46714;50.118;14.462;2022-08-18T01:28:25;98389.22;;;20.73;67.80
60871;BME280;46714;50.118;14.462;2022-08-18T01:31:11;98382.88;;;20.72;67.75
60871;BME280;46714;50.118;14.462;2022-08-18T01:33:52;98381.25;;;20.71;67.31
60871;BME280;46714;50.118;14.462;2022-08-18T01:36:19;98376.53;;;20.71;66.82
60871;BME280;46714;50.118;14.462;2022-08-18T01:38:46;98377.16;;;20.68;66.77
60871;BME280;46714;50.118;14.462;2022-08-18T01:41:14;98371.63;;;20.68;66.41
60871;BME280;46714;50.118;14.462;2022-08-18T01:43:40;98381.56;;;20.69;65.07
60871;BME280;46714;50.118;14.462;2022-08-18T01:46:06;98371.63;;;20.68;65.11
60871;BME280;46714;50.118;14.462;2022-08-18T01:48:33;98369.16;;;20.67;64.79
60871;BME280;46714;50.118;14.462;2022-08-18T01:51:02;98369.97;;;20.67;65.63
60871;BME280;46714;50.118;14.462;2022-08-18T01:53:29;98365.03;;;20.64;65.03
60871;BME280;46714;50.118;14.462;2022-08-18T01:55:54;98372.81;;;20.62;65.94
60871;BME280;46714;50.118;14.462;2022-08-18T01:58:20;98362.66;;;20.58;65.40
60871;BME280;46714;50.118;14.462;2022-08-18T02:00:52;98370.47;;;20.50;65.75
60871;BME280;46714;50.118;14.462;2022-08-18T02:03:22;98364.09;;;20.50;65.62
60871;BME280;46714;50.118;14.462;2022-08-18T02:05:51;98365.25;;;20.49;65.83
60871;BME280;46714;50.118;14.462;2022-08-18T02:08:20;98366.38;;;20.48;65.74
60871;BME280;46714;50.118;14.462;2022-08-18T02:10:46;98365.84;;;20.46;65.93
60871;BME280;46714;50.118;14.462;2022-08-18T02:13:11;98362.03;;;20.42;65.52
60871;BME280;46714;50.118;14.462;2022-08-18T02:15:37;98376.47;;;20.39;65.89
60871;BME280;46714;50.118;14.462;2022-08-18T02:18:02;98376.75;;;20.37;66.17
60871;BME280;46714;50.118;14.462;2022-08-18T02:20:28;98373.75;;;20.34;66.16
60871;BME280;46714;50.118;14.462;2022-08-18T02:22:53;98378.25;;;20.29;65.77
60871;BME280;46714;50.118;14.462;2022-08-18T02:25:19;98380.50;;;20.27;65.76
60871;BME280;46714;50.118;14.462;2022-08-18T02:27:44;98381.91;;;20.25;66.41
60871;BME280;46714;50.118;14.462;2022-08-18T02:30:12;98384.69;;;20.25;66.17
60871;BME280;46714;50.118;14.462;2022-08-18T02:32:40;98394.06;;;20.24;66.37
60871;BME280;46714;50.118;14.462;2022-08-18T02:35:08;98406.25;;;20.23;66.04
60871;BME280;46714;50.118;14.462;2022-08-18T02:37:35;98400.19;;;20.21;66.33
60871;BME280;46714;50.118;14.462;2022-08-18T02:40:02;98399.66;;;20.19;66.06
60871;BME280;46714;50.118;14.462;2022-08-18T02:42:28;98389.19;;;20.16;66.50
60871;BME280;46714;50.118;14.462;2022-08-18T02:44:55;98382.63;;;20.12;66.82
60871;BME280;46714;50.118;14.462;2022-08-18T02:47:20;98377.69;;;20.08;67.26
60871;BME280;46714;50.118;14.462;2022-08-18T02:49:46;98379.41;;;20.04;67.37
60871;BME280;46714;50.118;14.462;2022-08-18T02:52:12;98377.22;;;20.01;66.77
60871;BME280;46714;50.118;14.462;2022-08-18T02:54:37;98366.19;;;20.01;66.90
60871;BME280;46714;50.118;14.462;2022-08-18T02:57:06;98371.72;;;20.01;67.40
60871;BME280;46714;50.118;14.462;2022-08-18T02:59:34;98367.31;;;20.00;67.66
60871;BME280;46714;50.118;14.462;2022-08-18T03:02:03;98371.50;;;19.98;67.35
60871;BME280;46714;50.118;14.462;2022-08-18T03:04:29;98371.50;;;19.98;68.12
60871;BME280;46714;50.118;14.462;2022-08-18T03:06:56;98370.97;;;19.96;67.86
60871;BME280;46714;50.118;14.462;2022-08-18T03:09:24;98372.38;;;19.93;68.08
60871;BME280;46714;50.118;14.462;2022-08-18T03:11:50;98371.59;;;19.87;68.46
60871;BME280;46714;50.118;14.462;2022-08-18T03:14:17;98376.06;;;19.83;68.49
60871;BME280;46714;50.118;14.462;2022-08-18T03:16:45;98376.94;;;19.79;69.15
60871;BME280;46714;50.118;14.462;2022-08-18T03:19:12;98386.72;;;19.71;70.15
60871;BME280;46714;50.118;14.462;2022-08-18T03:21:41;98393.16;;;19.61;71.51
60871;BME280;46714;50.118;14.462;2022-08-18T03:24:08;98394.09;;;19.52;71.92
60871;BME280;46714;50.118;14.462;2022-08-18T03:26:35;98391.16;;;19.43;72.12
60871;BME280;46714;50.118;14.462;2022-08-18T03:29:08;98397.56;;;19.33;72.41
60871;BME280;46714;50.118;14.462;2022-08-18T03:31:34;98397.34;;;19.30;72.45
60871;BME280;46714;50.118;14.462;2022-08-18T03:34:02;98394.06;;;19.28;72.77
60871;BME280;46714;50.118;14.462;2022-08-18T03:36:29;98386.91;;;19.27;72.83
60871;BME280;46714;50.118;14.462;2022-08-18T03:38:56;98391.03;;;19.24;73.02
60871;BME280;46714;50.118;14.462;2022-08-18T03:41:22;98380.88;;;19.19;73.27
60871;BME280;46714;50.118;14.462;2022-08-18T03:43:50;98383.63;;;19.19;73.18
60871;BME280;46714;50.118;14.462;2022-08-18T03:46:17;98383.13;;;19.17;73.27
60871;BME280;46714;50.118;14.462;2022-08-18T03:48:44;98380.38;;;19.17;73.14
60871;BME280;46714;50.118;14.462;2022-08-18T03:51:27;98386.44;;;19.14;73.46
60871;BME280;46714;50.118;14.462;2022-08-18T03:53:58;98387.03;;;19.11;73.03
60871;BME280;46714;50.118;14.462;2022-08-18T03:56:27;98379.34;;;19.08;73.17
60871;BME280;46714;50.118;14.462;2022-08-18T03:58:57;98378.22;;;19.09;72.72
60871;BME280;46714;50.118;14.462;2022-08-18T04:01:26;98377.09;;;19.10;72.27
60871;BME280;46714;50.118;14.462;2022-08-18T04:03:55;98376.00;;;19.11;72.42
60871;BME280;46714;50.118;14.462;2022-08-18T04:06:23;98385.09;;;19.12;72.47
60871;BME280;46714;50.118;14.462;2022-08-18T04:08:52;98384.28;;;19.11;72.20
60871;BME280;46714;50.118;14.462;2022-08-18T04:11:18;98375.19;;;19.11;72.23
60871;BME280;46714;50.118;14.462;2022-08-18T04:13:44;98380.69;;;19.11;72.53
60871;BME280;46714;50.118;14.462;2022-08-18T04:16:09;98388.13;;;19.10;72.76
60871;BME280;46714;50.118;14.462;2022-08-18T04:18:35;98384.28;;;19.11;73.06
60871;BME280;46714;50.118;14.462;2022-08-18T04:21:01;98385.34;;;19.15;73.04
60871;BME280;46714;50.118;14.462;2022-08-18T04:23:28;98391.41;;;19.17;73.41
60871;BME280;46714;50.118;14.462;2022-08-18T04:25:55;98388.09;;;19.15;73.54
60871;BME280;46714;50.118;14.462;2022-08-18T04:28:21;98395.84;;;19.13;73.83
60871;BME280;46714;50.118;14.462;2022-08-18T04:30:47;98402.47;;;19.12;73.88
60871;BME280;46714;50.118;14.462;2022-08-18T04:33:12;98398.88;;;19.12;74.02
60871;BME280;46714;50.118;14.462;2022-08-18T04:35:38;98406.34;;;19.11;74.26
60871;BME280;46714;50.118;14.462;2022-08-18T04:38:04;98398.34;;;19.10;74.39
60871;BME280;46714;50.118;14.462;2022-08-18T04:40:29;98401.41;;;19.08;74.79
60871;BME280;46714;50.118;14.462;2022-08-18T04:42:57;98400.28;;;19.09;74.68
60871;BME280;46714;50.118;14.462;2022-08-18T04:45:23;98390.88;;;19.10;74.88
60871;BME280;46714;50.118;14.462;2022-08-18T04:47:48;98395.03;;;19.13;74.22
60871;BME280;46714;50.118;14.462;2022-08-18T04:50:14;98394.44;;;19.16;74.87
60871;BME280;46714;50.118;14.462;2022-08-18T04:52:41;98397.97;;;19.21;74.02
60871;BME280;46714;50.118;14.462;2022-08-18T04:55:25;98391.84;;;19.30;74.12
60871;BME280;46714;50.118;14.462;2022-08-18T04:57:53;98397.56;;;19.33;74.29
60871;BME280;46714;50.118;14.462;2022-08-18T05:00:19;98391.50;;;19.36;74.47
60871;BME280;46714;50.118;14.462;2022-08-18T05:02:44;98397.75;;;19.42;74.37
60871;BME280;46714;50.118;14.462;2022-08-18T05:05:09;98409.28;;;19.49;73.77
60871;BME280;46714;50.118;14.462;2022-08-18T05:07:35;98406.50;;;19.54;73.05
60871;BME280;46714;50.118;14.462;2022-08-18T05:10:01;98404.47;;;19.60;74.23
60871;BME280;46714;50.118;14.462;2022-08-18T05:12:26;98408.03;;;19.65;72.95
60871;BME280;46714;50.118;14.462;2022-08-18T05:14:53;98406.06;;;19.71;72.70
60871;BME280;46714;50.118;14.462;2022-08-18T05:17:20;98402.94;;;19.78;72.13
60871;BME280;46714;50.118;14.462;2022-08-18T05:19:46;98400.94;;;19.83;72.14
60871;BME280;46714;50.118;14.462;2022-08-18T05:22:12;98402.00;;;19.87;71.66
60871;BME280;46714;50.118;14.462;2022-08-18T05:24:43;98407.44;;;19.93;71.17
60871;BME280;46714;50.118;14.462;2022-08-18T05:27:08;98406.88;;;19.96;71.01
60871;BME280;46714;50.118;14.462;2022-08-18T05:29:34;98398.00;;;19.99;71.13
60871;BME280;46714;50.118;14.462;2022-08-18T05:32:01;98399.03;;;20.03;71.29
60871;BME280;46714;50.118;14.462;2022-08-18T05:34:28;98405.63;;;20.07;71.74
60871;BME280;46714;50.118;14.462;2022-08-18T05:37:00;98405.84;;;20.11;71.16
60871;BME280;46714;50.118;14.462;2022-08-18T05:39:59;98417.97;;;20.15;70.90
60871;BME280;46714;50.118;14.462;2022-08-18T05:42:29;98414.31;;;20.19;71.18
60871;BME280;46714;50.118;14.462;2022-08-18T05:45:01;98414.75;;;20.26;70.73
60871;BME280;46714;50.118;14.462;2022-08-18T05:47:32;98411.63;;;20.33;69.78
60871;BME280;46714;50.118;14.462;2022-08-18T05:50:04;98409.63;;;20.39;69.46
60871;BME280;46714;50.118;14.462;2022-08-18T05:52:39;98406.78;;;20.44;69.88
60871;BME280;46714;50.118;14.462;2022-08-18T05:55:11;98413.88;;;20.50;69.32
60871;BME280;46714;50.118;14.462;2022-08-18T05:58:02;98400.28;;;20.54;69.02
60871;BME280;46714;50.118;14.462;2022-08-18T06:00:32;98406.09;;;20.57;69.75
60871;BME280;46714;50.118;14.462;2022-08-18T06:03:01;98407.09;;;20.61;69.56
60871;BME280;46714;50.118;14.462;2022-08-18T06:05:37;98411.75;;;20.66;69.73
60871;BME280;46714;50.118;14.462;2022-08-18T06:08:11;98407.78;;;20.72;69.57
60871;BME280;46714;50.118;14.462;2022-08-18T06:10:40;98416.53;;;20.79;69.46
60871;BME280;46714;50.118;14.462;2022-08-18T06:13:10;98410.59;;;20.86;68.71
60871;BME280;46714;50.118;14.462;2022-08-18T06:20:44;98421.97;;;21.03;68.55
60871;BME280;46714;50.118;14.462;2022-08-18T06:37:38;98441.09;;;21.32;66.29
60871;BME280;46714;50.118;14.462;2022-08-18T06:40:29;98444.38;;;21.34;66.44
60871;BME280;46714;50.118;14.462;2022-08-18T06:42:54;98442.97;;;21.37;67.23
60871;BME280;46714;50.118;14.462;2022-08-18T06:45:23;98442.09;;;21.42;66.55
60871;BME280;46714;50.118;14.462;2022-08-18T06:48:05;98439.25;;;21.47;67.63
60871;BME280;46714;50.118;14.462;2022-08-18T06:53:21;98434.31;;;21.58;67.95
60871;BME280;46714;50.118;14.462;2022-08-18T06:56:20;98433.63;;;21.66;67.11
60871;BME280;46714;50.118;14.462;2022-08-18T06:58:52;98438.66;;;21.78;65.52
60871;BME280;46714;50.118;14.462;2022-08-18T07:01:19;98434.06;;;21.87;65.34
60871;BME280;46714;50.118;14.462;2022-08-18T07:03:56;98438.88;;;21.95;64.59
60871;BME280;46714;50.118;14.462;2022-08-18T07:06:23;98443.91;;;22.07;67.04
60871;BME280;46714;50.118;14.462;2022-08-18T07:08:54;98445.13;;;22.14;66.87
60871;BME280;46714;50.118;14.462;2022-08-18T07:11:40;98444.47;;;22.23;66.71
60871;BME280;46714;50.118;14.462;2022-08-18T07:14:23;98445.66;;;22.30;66.70
60871;BME280;46714;50.118;14.462;2022-08-18T07:16:50;98440.00;;;22.35;67.11
60871;BME280;46714;50.118;14.462;2022-08-18T07:19:30;98441.25;;;22.43;66.56
60871;BME280;46714;50.118;14.462;2022-08-18T07:22:07;98450.91;;;22.46;65.91
60871;BME280;46714;50.118;14.462;2022-08-18T07:32:36;98461.06;;;22.50;66.86
60871;BME280;46714;50.118;14.462;2022-08-18T07:35:09;98453.84;;;22.49;66.79
60871;BME280;46714;50.118;14.462;2022-08-18T07:37:39;98449.16;;;22.50;65.26
60871;BME280;46714;50.118;14.462;2022-08-18T07:40:19;98448.00;;;22.51;66.84
60871;BME280;46714;50.118;14.462;2022-08-18T07:43:04;98458.59;;;22.49;65.79
60871;BME280;46714;50.118;14.462;2022-08-18T07:45:42;98463.63;;;22.47;65.43
60871;BME280;46714;50.118;14.462;2022-08-18T07:56:38;98467.84;;;22.30;65.49
60871;BME280;46714;50.118;14.462;2022-08-18T08:06:42;98458.69;;;22.44;65.57
60871;BME280;46714;50.118;14.462;2022-08-18T08:09:22;98459.31;;;22.54;64.97
60871;BME280;46714;50.118;14.462;2022-08-18T08:12:02;98451.47;;;22.70;64.10
60871;BME280;46714;50.118;14.462;2022-08-18T08:14:45;98457.78;;;22.85;60.78
60871;BME280;46714;50.118;14.462;2022-08-18T08:17:24;98453.84;;;22.99;62.02
60871;BME280;46714;50.118;14.462;2022-08-18T08:22:50;98461.31;;;23.35;60.17
60871;BME280;46714;50.118;14.462;2022-08-18T08:25:24;98449.81;;;23.51;58.55
60871;BME280;46714;50.118;14.462;2022-08-18T08:28:01;98447.13;;;23.68;57.92
60871;BME280;46714;50.118;14.462;2022-08-18T08:30:40;98439.72;;;23.86;58.21
60871;BME280;46714;50.118;14.462;2022-08-18T08:33:34;98433.91;;;24.05;58.08
60871;BME280;46714;50.118;14.462;2022-08-18T08:36:30;98430.88;;;24.24;57.25
60871;BME280;46714;50.118;14.462;2022-08-18T08:41:41;98424.41;;;24.55;55.16
60871;BME280;46714;50.118;14.462;2022-08-18T08:50:02;98422.16;;;24.74;55.44
60871;BME280;46714;50.118;14.462;2022-08-18T08:55:23;98417.88;;;24.85;55.24
60871;BME280;46714;50.118;14.462;2022-08-18T09:00:35;98405.91;;;25.11;53.85
60871;BME280;46714;50.118;14.462;2022-08-18T09:22:29;98366.22;;;25.79;51.73
60871;BME280;46714;50.118;14.462;2022-08-18T09:24:56;98349.97;;;25.89;50.88
60871;BME280;46714;50.118;14.462;2022-08-18T09:30:35;98337.34;;;26.13;50.26
60871;BME280;46714;50.118;14.462;2022-08-18T09:33:19;98331.94;;;26.17;50.39
60871;BME280;46714;50.118;14.462;2022-08-18T09:41:58;98324.16;;;26.43;49.18
60871;BME280;46714;50.118;14.462;2022-08-18T09:55:35;98308.47;;;26.93;48.84
60871;BME280;46714;50.118;14.462;2022-08-18T10:03:43;98297.78;;;26.95;48.12
60871;BME280;46714;50.118;14.462;2022-08-18T10:06:48;98312.22;;;26.97;48.72
60871;BME280;46714;50.118;14.462;2022-08-18T10:11:42;98302.47;;;27.03;48.30
60871;BME280;46714;50.118;14.462;2022-08-18T10:14:32;98306.19;;;27.07;48.08
60871;BME280;46714;50.118;14.462;2022-08-18T10:20:24;98298.81;;;27.36;46.99
60871;BME280;46714;50.118;14.462;2022-08-18T10:23:03;98280.31;;;27.44;46.80
60871;BME280;46714;50.118;14.462;2022-08-18T10:27:56;98259.81;;;27.52;46.54
60871;BME280;46714;50.118;14.462;2022-08-18T10:32:56;98280.88;;;27.74;46.15
60871;BME280;46714;50.118;14.462;2022-08-18T10:36:07;98272.97;;;27.76;46.28
60871;BME280;46714;50.118;14.462;2022-08-18T10:41:35;98265.97;;;27.94;46.38
60871;BME280;46714;50.118;14.462;2022-08-18T10:44:02;98273.44;;;28.03;45.66
60871;BME280;46714;50.118;14.462;2022-08-18T10:46:32;98263.72;;;28.12;45.73
60871;BME280;46714;50.118;14.462;2022-08-18T10:51:48;98261.94;;;28.32;45.59
60871;BME280;46714;50.118;14.462;2022-08-18T10:54:23;98268.44;;;28.36;45.49
60871;BME280;46714;50.118;14.462;2022-08-18T10:57:08;98274.25;;;28.44;44.21
60871;BME280;46714;50.118;14.462;2022-08-18T10:59:54;98277.75;;;28.53;45.08
60871;BME280;46714;50.118;14.462;2022-08-18T11:05:19;98275.34;;;28.67;44.47
60871;BME280;46714;50.118;14.462;2022-08-18T11:07:49;98275.31;;;28.79;44.73
60871;BME280;46714;50.118;14.462;2022-08-18T11:10:33;98275.50;;;28.87;44.55
60871;BME280;46714;50.118;14.462;2022-08-18T11:18:36;98273.88;;;29.14;44.50
60871;BME280;46714;50.118;14.462;2022-08-18T11:24:05;98269.44;;;29.29;44.20
60871;BME280;46714;50.118;14.462;2022-08-18T11:26:36;98282.09;;;29.38;44.15
60871;BME280;46714;50.118;14.462;2022-08-18T11:31:48;98291.69;;;29.53;43.18
60871;BME280;46714;50.118;14.462;2022-08-18T11:34:18;98291.75;;;29.57;43.72
60871;BME280;46714;50.118;14.462;2022-08-18T11:36:54;98279.44;;;29.61;44.05
60871;BME280;46714;50.118;14.462;2022-08-18T11:39:21;98273.22;;;29.68;42.97
60871;BME280;46714;50.118;14.462;2022-08-18T11:41:47;98270.69;;;29.79;41.74
60871;BME280;46714;50.118;14.462;2022-08-18T11:44:16;98271.63;;;30.02;41.64
60871;BME280;46714;50.118;14.462;2022-08-18T11:46:45;98260.34;;;30.18;41.82
60871;BME280;46714;50.118;14.462;2022-08-18T11:49:25;98268.59;;;30.27;40.75
60871;BME280;46714;50.118;14.462;2022-08-18T11:51:58;98275.25;;;30.38;40.61
60871;BME280;46714;50.118;14.462;2022-08-18T11:54:32;98274.66;;;30.48;39.87
60871;BME280;46714;50.118;14.462;2022-08-18T11:59:55;98272.16;;;30.63;40.82
60871;BME280;46714;50.118;14.462;2022-08-18T12:02:22;98264.59;;;30.67;39.56
60871;BME280;46714;50.118;14.462;2022-08-18T12:04:55;98262.38;;;30.76;39.23
60871;BME280;46714;50.118;14.462;2022-08-18T12:07:30;98270.00;;;30.95;38.90
60871;BME280;46714;50.118;14.462;2022-08-18T12:10:18;98258.94;;;31.06;38.14
60871;BME280;46714;50.118;14.462;2022-08-18T12:12:49;98256.44;;;31.01;38.79
60871;BME280;46714;50.118;14.462;2022-08-18T12:17:42;98241.81;;;30.92;39.01
60871;BME280;46714;50.118;14.462;2022-08-18T12:20:09;98245.06;;;30.94;39.04
60871;BME280;46714;50.118;14.462;2022-08-18T12:22:36;98237.22;;;31.03;38.60
60871;BME280;46714;50.118;14.462;2022-08-18T12:25:04;98237.84;;;31.16;38.64
60871;BME280;46714;50.118;14.462;2022-08-18T12:27:32;98220.91;;;31.12;39.27
60871;BME280;46714;50.118;14.462;2022-08-18T12:29:58;98224.03;;;31.07;38.75
60871;BME280;46714;50.118;14.462;2022-08-18T12:32:26;98219.72;;;31.13;38.79
60871;BME280;46714;50.118;14.462;2022-08-18T12:34:53;98216.78;;;31.06;38.07
60871;BME280;46714;50.118;14.462;2022-08-18T12:37:19;98219.84;;;30.97;39.26
60871;BME280;46714;50.118;14.462;2022-08-18T12:39:48;98225.84;;;30.96;39.09
60871;BME280;46714;50.118;14.462;2022-08-18T12:42:13;98212.97;;;30.95;39.74
60871;BME280;46714;50.118;14.462;2022-08-18T12:44:39;98194.84;;;30.92;39.94
60871;BME280;46714;50.118;14.462;2022-08-18T12:47:18;98198.06;;;30.91;39.11
60871;BME280;46714;50.118;14.462;2022-08-18T12:49:49;98192.22;;;31.03;39.08
60871;BME280;46714;50.118;14.462;2022-08-18T12:52:15;98193.34;;;31.21;38.08
60871;BME280;46714;50.118;14.462;2022-08-18T12:54:41;98174.72;;;31.36;38.43
60871;BME280;46714;50.118;14.462;2022-08-18T12:57:10;98172.19;;;31.54;37.48
60871;BME280;46714;50.118;14.462;2022-08-18T12:59:41;98167.41;;;31.58;37.27
60871;BME280;46714;50.118;14.462;2022-08-18T13:02:07;98168.34;;;31.66;38.14
60871;BME280;46714;50.118;14.462;2022-08-18T13:04:34;98164.34;;;31.67;36.73
60871;BME280;46714;50.118;14.462;2022-08-18T13:06:59;98162.00;;;31.72;36.47
60871;BME280;46714;50.118;14.462;2022-08-18T13:09:25;98155.13;;;31.70;37.28
60871;BME280;46714;50.118;14.462;2022-08-18T13:11:51;98165.81;;;31.57;39.03
60871;BME280;46714;50.118;14.462;2022-08-18T13:14:17;98161.97;;;31.42;35.80
60871;BME280;46714;50.118;14.462;2022-08-18T13:16:43;98159.06;;;31.39;35.70
60871;BME280;46714;50.118;14.462;2022-08-18T13:19:10;98162.47;;;31.48;35.72
60871;BME280;46714;50.118;14.462;2022-08-18T13:21:36;98163.03;;;31.61;35.19
60871;BME280;46714;50.118;14.462;2022-08-18T13:24:02;98158.19;;;31.88;34.71
60871;BME280;46714;50.118;14.462;2022-08-18T13:26:32;98157.22;;;32.03;34.02
60871;BME280;46714;50.118;14.462;2022-08-18T13:29:00;98147.34;;;32.17;34.82
60871;BME280;46714;50.118;14.462;2022-08-18T13:31:26;98142.94;;;32.19;34.53
60871;BME280;46714;50.118;14.462;2022-08-18T13:33:52;98135.22;;;32.16;34.67
60871;BME280;46714;50.118;14.462;2022-08-18T13:36:21;98135.97;;;32.09;34.23
60871;BME280;46714;50.118;14.462;2022-08-18T13:38:48;98145.25;;;32.13;33.94
60871;BME280;46714;50.118;14.462;2022-08-18T13:41:16;98142.50;;;32.17;33.35
60871;BME280;46714;50.118;14.462;2022-08-18T13:43:43;98150.16;;;32.20;33.18
60871;BME280;46714;50.118;14.462;2022-08-18T13:46:11;98149.44;;;32.23;33.71
60871;BME280;46714;50.118;14.462;2022-08-18T13:48:39;98149.06;;;32.28;32.97
60871;BME280;46714;50.118;14.462;2022-08-18T13:51:05;98142.63;;;32.28;32.94
60871;BME280;46714;50.118;14.462;2022-08-18T13:53:34;98132.69;;;32.38;33.81
60871;BME280;46714;50.118;14.462;2022-08-18T13:56:03;98128.84;;;32.53;33.29
60871;BME280;46714;50.118;14.462;2022-08-18T13:58:29;98135.81;;;32.66;32.58
60871;BME280;46714;50.118;14.462;2022-08-18T14:00:59;98136.03;;;32.88;32.64
60871;BME280;46714;50.118;14.462;2022-08-18T14:03:27;98134.53;;;33.01;32.62
60871;BME280;46714;50.118;14.462;2022-08-18T14:05:53;98135.06;;;33.14;31.93
60871;BME280;46714;50.118;14.462;2022-08-18T14:08:22;98131.16;;;33.29;32.15
60871;BME280;46714;50.118;14.462;2022-08-18T14:10:48;98118.75;;;33.48;31.74
60871;BME280;46714;50.118;14.462;2022-08-18T14:13:17;98114.38;;;33.54;30.96
60871;BME280;46714;50.118;14.462;2022-08-18T14:15:43;98109.06;;;33.46;31.23
60871;BME280;46714;50.118;14.462;2022-08-18T14:18:09;98121.16;;;33.43;30.46
60871;BME280;46714;50.118;14.462;2022-08-18T14:20:35;98120.75;;;33.41;30.61
60871;BME280;46714;50.118;14.462;2022-08-18T14:23:19;98124.66;;;33.25;30.79
60871;BME280;46714;50.118;14.462;2022-08-18T14:26:03;98127.91;;;33.27;31.49
60871;BME280;46714;50.118;14.462;2022-08-18T14:28:47;98137.84;;;33.10;32.32
60871;BME280;46714;50.118;14.462;2022-08-18T14:31:13;98140.16;;;33.01;31.97
60871;BME280;46714;50.118;14.462;2022-08-18T14:33:38;98140.84;;;32.87;34.12
60871;BME280;46714;50.118;14.462;2022-08-18T14:36:04;98138.28;;;32.71;32.82
60871;BME280;46714;50.118;14.462;2022-08-18T14:38:30;98124.16;;;32.68;31.97
60871;BME280;46714;50.118;14.462;2022-08-18T14:41:00;98131.75;;;32.64;32.30
60871;BME280;46714;50.118;14.462;2022-08-18T14:43:28;98128.31;;;32.81;33.10
60871;BME280;46714;50.118;14.462;2022-08-18T14:45:53;98124.56;;;33.14;31.54
60871;BME280;46714;50.118;14.462;2022-08-18T14:48:19;98123.38;;;33.15;31.81
60871;BME280;46714;50.118;14.462;2022-08-18T14:50:47;98115.81;;;33.27;31.43
60871;BME280;46714;50.118;14.462;2022-08-18T14:53:14;98126.63;;;33.21;31.85
60871;BME280;46714;50.118;14.462;2022-08-18T14:55:46;98123.06;;;33.24;31.35
60871;BME280;46714;50.118;14.462;2022-08-18T14:58:16;98113.97;;;33.52;31.73
60871;BME280;46714;50.118;14.462;2022-08-18T15:00:41;98120.91;;;33.66;30.82
60871;BME280;46714;50.118;14.462;2022-08-18T15:03:06;98115.72;;;33.75;30.69
60871;BME280;46714;50.118;14.462;2022-08-18T15:05:32;98119.44;;;33.97;31.06
60871;BME280;46714;50.118;14.462;2022-08-18T15:07:58;98105.84;;;34.20;29.54
60871;BME280;46714;50.118;14.462;2022-08-18T15:10:27;98108.31;;;34.40;29.62
60871;BME280;46714;50.118;14.462;2022-08-18T15:12:52;98108.72;;;34.56;31.08
60871;BME280;46714;50.118;14.462;2022-08-18T15:15:18;98113.66;;;34.77;29.78
60871;BME280;46714;50.118;14.462;2022-08-18T15:17:43;98093.44;;;35.08;30.59
60871;BME280;46714;50.118;14.462;2022-08-18T15:20:09;98096.28;;;35.33;28.48
60871;BME280;46714;50.118;14.462;2022-08-18T15:22:39;98090.59;;;35.36;28.06
60871;BME280;46714;50.118;14.462;2022-08-18T15:25:24;98095.06;;;34.87;28.67
60871;BME280;46714;50.118;14.462;2022-08-18T15:28:08;98088.53;;;34.47;29.33
60871;BME280;46714;50.118;14.462;2022-08-18T15:30:35;98087.25;;;34.12;30.16
60871;BME280;46714;50.118;14.462;2022-08-18T15:33:02;98081.09;;;33.89;29.42